Time;durP1;ratioP1;P1;durP2;ratioP2;P2;SDS_P1;SDS_P2;PMS_P1;PMS_P2;Temp;Humidity;BMP_temperature;BMP_pressure;BME280_temperature;BME280_humidity;BME280_pressure;Samples;Min_cycle;Max_cycle;Signal;HPM_P1;HPM_P2
2022/01/11 00:02:11;;;;;;;34.90;24.93;;;4.10;99.90;;;;;;5038107;28;20480;-89
2022/01/11 00:04:39;;;;;;;38.30;28.33;;;4.10;99.90;;;;;;5032572;28;20520;-89
2022/01/11 00:07:09;;;;;;;36.57;24.80;;;4.10;99.90;;;;;;5029069;28;20430;-89
2022/01/11 00:09:41;;;;;;;40.53;27.20;;;4.10;99.90;;;;;;5030601;28;20827;-89
2022/01/11 00:12:10;;;;;;;35.63;26.73;;;4.10;99.90;;;;;;5016114;28;20951;-89
2022/01/11 00:14:37;;;;;;;35.37;25.40;;;4.10;99.90;;;;;;5016511;28;20461;-90
2022/01/11 00:17:05;;;;;;;38.90;26.67;;;4.10;99.90;;;;;;5015567;28;20605;-89
2022/01/11 00:19:33;;;;;;;33.50;25.73;;;4.20;99.90;;;;;;5014879;28;20487;-89
2022/01/11 00:22:07;;;;;;;45.90;27.57;;;4.10;99.90;;;;;;5015645;28;20486;-89
2022/01/11 00:24:34;;;;;;;36.57;26.17;;;4.10;99.90;;;;;;4998768;28;20470;-89
2022/01/11 00:27:03;;;;;;;36.43;28.00;;;4.10;99.90;;;;;;4996388;28;20540;-90
2022/01/11 00:29:31;;;;;;;27.37;23.83;;;4.10;99.90;;;;;;4994762;28;20479;-89
2022/01/11 00:32:03;;;;;;;35.37;24.93;;;4.10;99.90;;;;;;5020179;28;20448;-89
2022/01/11 00:34:39;;;;;;;38.43;24.90;;;4.00;99.90;;;;;;5015010;28;20943;-90
2022/01/11 00:37:08;;;;;;;35.47;26.13;;;4.00;99.90;;;;;;5017611;28;20457;-89
2022/01/11 00:39:35;;;;;;;39.43;27.07;;;4.00;99.90;;;;;;5014651;28;20473;-89
2022/01/11 00:42:02;;;;;;;38.47;27.30;;;4.00;99.90;;;;;;5015035;28;20484;-89
2022/01/11 00:44:29;;;;;;;39.70;26.50;;;3.80;99.90;;;;;;5014514;28;20460;-89
2022/01/11 00:46:55;;;;;;;39.93;27.37;;;3.90;99.90;;;;;;5014019;28;20454;-89
2022/01/11 00:49:22;;;;;;;41.67;25.83;;;3.90;99.90;;;;;;5014414;28;20450;-89
2022/01/11 00:51:49;;;;;;;37.00;27.10;;;4.00;99.90;;;;;;5014250;28;20493;-89
2022/01/11 00:54:17;;;;;;;32.80;25.50;;;4.00;99.90;;;;;;5014347;28;20441;-89
2022/01/11 00:56:44;;;;;;;41.63;28.63;;;4.00;99.90;;;;;;5014124;28;20434;-89
2022/01/11 00:59:11;;;;;;;34.00;25.10;;;4.10;99.90;;;;;;5010135;28;20455;-90
2022/01/11 01:01:38;;;;;;;36.90;26.17;;;4.10;99.90;;;;;;4995128;28;20968;-88
2022/01/11 01:04:06;;;;;;;40.93;26.03;;;4.10;99.90;;;;;;4993821;28;20443;-89
2022/01/11 01:06:33;;;;;;;35.70;25.30;;;4.10;99.90;;;;;;4993476;28;20450;-89
2022/01/11 01:08:59;;;;;;;33.57;24.33;;;4.10;99.90;;;;;;4994667;28;20464;-89
2022/01/11 01:11:31;;;;;;;38.23;26.60;;;4.10;99.90;;;;;;4994485;28;20459;-89
2022/01/11 01:13:58;;;;;;;29.77;23.40;;;4.10;99.90;;;;;;5003619;28;20450;-90
2022/01/11 01:16:25;;;;;;;33.33;26.27;;;4.10;99.90;;;;;;5014253;28;20849;-89
2022/01/11 01:18:52;;;;;;;35.27;25.97;;;4.20;99.90;;;;;;5009267;28;20439;-89
2022/01/11 01:21:19;;;;;;;31.63;24.30;;;4.20;99.90;;;;;;5027821;28;20458;-89
2022/01/11 01:23:46;;;;;;;31.10;25.27;;;4.10;99.90;;;;;;5011301;28;21004;-88
2022/01/11 01:26:16;;;;;;;35.63;24.97;;;4.10;99.90;;;;;;4996565;28;20495;-89
2022/01/11 01:28:44;;;;;;;35.20;25.10;;;4.10;99.90;;;;;;5031808;28;20446;-89
2022/01/11 01:31:11;;;;;;;33.40;24.70;;;4.10;99.90;;;;;;5023725;28;20451;-89
2022/01/11 01:33:38;;;;;;;30.30;25.00;;;4.10;99.90;;;;;;5017058;28;20448;-89
2022/01/11 01:36:11;;;;;;;35.63;24.63;;;4.00;99.90;;;;;;5015682;28;20824;-88
2022/01/11 01:38:38;;;;;;;35.60;25.43;;;4.10;99.90;;;;;;5004959;28;20524;-89
2022/01/11 01:41:12;;;;;;;28.13;23.77;;;4.10;99.90;;;;;;5014395;28;20486;-88
2022/01/11 01:43:39;;;;;;;30.80;22.90;;;4.10;99.90;;;;;;5016258;28;20851;-89
2022/01/11 01:46:07;;;;;;;34.20;24.07;;;4.10;99.90;;;;;;5004854;28;20466;-89
2022/01/11 01:48:35;;;;;;;33.70;24.80;;;4.00;99.90;;;;;;5025523;28;20438;-89
2022/01/11 01:51:03;;;;;;;32.00;23.90;;;4.10;99.90;;;;;;5019207;28;20510;-89
2022/01/11 01:53:31;;;;;;;30.80;24.57;;;4.10;99.90;;;;;;4994540;28;20450;-88
2022/01/11 01:55:58;;;;;;;40.47;24.30;;;4.00;99.90;;;;;;4993827;28;20472;-88
2022/01/11 01:58:26;;;;;;;30.60;23.00;;;4.00;99.90;;;;;;5000639;28;20501;-89
2022/01/11 02:00:55;;;;;;;35.10;26.00;;;4.00;99.90;;;;;;5002751;28;20502;-88
2022/01/11 02:03:26;;;;;;;35.13;24.87;;;4.00;99.90;;;;;;4998638;28;20880;-90
2022/01/11 02:05:55;;;;;;;35.47;25.77;;;4.00;99.90;;;;;;5002463;28;20461;-90
2022/01/11 02:08:23;;;;;;;31.30;25.60;;;4.00;99.90;;;;;;5005660;28;20474;-90
2022/01/11 02:10:50;;;;;;;32.23;26.23;;;4.00;99.90;;;;;;5002740;28;20466;-90
2022/01/11 02:13:17;;;;;;;36.90;23.53;;;4.00;99.90;;;;;;5012947;28;20983;-90
2022/01/11 02:15:44;;;;;;;39.13;25.00;;;4.00;99.90;;;;;;5015334;28;20839;-91
2022/01/11 02:18:13;;;;;;;39.67;26.07;;;4.00;99.90;;;;;;5016860;28;20446;-91
2022/01/11 02:20:43;;;;;;;39.27;27.20;;;4.00;99.90;;;;;;5016458;28;20486;-90
2022/01/11 02:23:10;;;;;;;34.60;26.13;;;4.00;99.90;;;;;;5018629;28;20489;-90
2022/01/11 02:25:37;;;;;;;37.20;25.97;;;4.00;99.90;;;;;;5039567;28;20453;-90
2022/01/11 02:28:06;;;;;;;34.03;23.80;;;4.00;99.90;;;;;;5041048;28;20442;-91
2022/01/11 02:30:34;;;;;;;34.90;25.93;;;4.10;99.90;;;;;;5041049;28;20472;-91
2022/01/11 02:33:03;;;;;;;35.87;27.20;;;4.00;99.90;;;;;;5041464;28;20521;-90
2022/01/11 02:35:30;;;;;;;33.53;24.20;;;4.00;99.90;;;;;;5039288;28;20457;-90
2022/01/11 02:37:58;;;;;;;33.70;25.03;;;4.00;99.90;;;;;;5029593;28;20458;-91
2022/01/11 02:40:25;;;;;;;38.33;28.20;;;3.90;99.90;;;;;;5041352;28;20445;-91
2022/01/11 02:42:52;;;;;;;36.00;27.73;;;3.90;99.90;;;;;;5040621;28;20485;-90
2022/01/11 02:45:21;;;;;;;33.63;26.60;;;3.90;99.90;;;;;;5040284;28;20434;-90
2022/01/11 02:47:49;;;;;;;34.43;25.20;;;3.80;99.90;;;;;;5026671;28;20453;-90
2022/01/11 02:50:17;;;;;;;38.73;25.83;;;3.80;99.90;;;;;;5018161;28;20474;-90
2022/01/11 02:52:44;;;;;;;33.60;25.27;;;3.70;99.90;;;;;;5017861;28;20459;-91
2022/01/11 02:55:14;;;;;;;32.10;24.57;;;3.80;99.90;;;;;;5004614;28;20458;-91
2022/01/11 02:57:41;;;;;;;45.70;26.37;;;3.80;99.90;;;;;;5017183;28;20449;-90
2022/01/11 03:00:10;;;;;;;40.97;27.50;;;3.80;99.90;;;;;;5017354;28;20546;-91
2022/01/11 03:02:37;;;;;;;35.80;26.40;;;3.90;99.90;;;;;;5016800;28;20512;-91
2022/01/11 03:05:05;;;;;;;35.47;24.17;;;3.90;99.90;;;;;;5016871;28;20480;-91
2022/01/11 03:07:32;;;;;;;40.40;25.93;;;3.90;99.90;;;;;;5017384;28;20434;-91
2022/01/11 03:10:04;;;;;;;39.43;28.10;;;3.90;99.90;;;;;;5017246;28;20532;-90
2022/01/11 03:12:32;;;;;;;35.07;26.20;;;3.90;99.90;;;;;;5017505;28;20437;-91
2022/01/11 03:14:59;;;;;;;41.10;27.40;;;3.90;99.90;;;;;;5016419;28;20440;-91
2022/01/11 03:17:26;;;;;;;41.83;28.77;;;3.90;99.90;;;;;;5016331;28;20433;-90
2022/01/11 03:19:54;;;;;;;38.23;26.50;;;3.90;99.90;;;;;;5016116;28;20480;-90
2022/01/11 03:22:21;;;;;;;30.90;25.10;;;3.90;99.90;;;;;;5033405;28;20448;-90
2022/01/11 03:24:48;;;;;;;38.57;25.93;;;4.00;99.90;;;;;;5033290;28;20428;-90
2022/01/11 03:27:15;;;;;;;33.43;25.30;;;3.90;99.90;;;;;;5005487;28;20449;-90
2022/01/11 03:29:43;;;;;;;44.50;28.00;;;4.00;99.90;;;;;;5015101;28;20466;-91
2022/01/11 03:32:12;;;;;;;37.77;25.67;;;3.90;99.90;;;;;;5004621;28;20447;-90
2022/01/11 03:34:41;;;;;;;34.30;25.80;;;4.00;99.90;;;;;;5017014;28;20500;-90
2022/01/11 03:37:10;;;;;;;33.83;25.17;;;4.00;99.90;;;;;;5040259;28;20452;-90
2022/01/11 03:39:37;;;;;;;32.67;25.80;;;4.00;99.90;;;;;;5040235;28;20490;-89
2022/01/11 03:42:04;;;;;;;32.23;24.90;;;3.90;99.90;;;;;;5028472;28;20487;-89
2022/01/11 03:44:31;;;;;;;41.90;26.17;;;3.90;99.90;;;;;;5034717;28;20492;-90
2022/01/11 03:46:59;;;;;;;35.87;25.37;;;4.00;99.90;;;;;;5029431;28;20463;-90
2022/01/11 03:49:26;;;;;;;30.13;25.50;;;3.90;99.90;;;;;;5012014;28;20452;-90
2022/01/11 03:51:53;;;;;;;34.57;24.10;;;3.90;99.90;;;;;;5013284;28;20450;-90
2022/01/11 03:54:25;;;;;;;42.00;26.87;;;3.90;99.90;;;;;;5002931;28;20446;-90
2022/01/11 03:56:53;;;;;;;34.60;25.63;;;3.90;99.90;;;;;;5011196;28;20454;-90
2022/01/11 03:59:21;;;;;;;37.90;27.33;;;3.90;99.90;;;;;;5002814;28;20443;-90
2022/01/11 04:01:51;;;;;;;36.13;27.50;;;3.80;99.90;;;;;;5012382;28;20453;-90
2022/01/11 04:04:19;;;;;;;31.73;24.60;;;3.80;99.90;;;;;;4999012;28;20478;-90
2022/01/11 04:06:46;;;;;;;32.17;26.33;;;3.80;99.90;;;;;;5001524;28;20482;-90
2022/01/11 04:09:13;;;;;;;38.53;26.47;;;3.80;99.90;;;;;;5003768;28;20454;-90
2022/01/11 04:11:39;;;;;;;38.33;27.47;;;3.80;99.90;;;;;;5003138;28;20458;-90
2022/01/11 04:14:06;;;;;;;32.90;25.73;;;3.80;99.90;;;;;;5005484;28;20454;-90
2022/01/11 04:16:33;;;;;;;29.50;25.50;;;3.70;99.90;;;;;;5000330;28;20853;-90
2022/01/11 04:19:00;;;;;;;36.63;25.60;;;3.70;99.90;;;;;;4994865;28;20450;-89
2022/01/11 04:21:28;;;;;;;37.60;26.60;;;3.70;99.90;;;;;;5005282;28;20493;-90
2022/01/11 04:23:55;;;;;;;36.37;28.00;;;3.60;99.90;;;;;;4996656;28;20492;-90
2022/01/11 04:26:22;;;;;;;48.60;27.63;;;3.70;99.90;;;;;;5001038;28;20831;-89
2022/01/11 04:28:49;;;;;;;36.77;26.97;;;3.70;99.90;;;;;;5001091;28;20963;-90
2022/01/11 04:31:15;;;;;;;37.67;28.60;;;3.70;99.90;;;;;;5003160;28;20481;-90
2022/01/11 04:33:43;;;;;;;43.63;27.27;;;3.70;99.90;;;;;;4999806;28;20453;-90
2022/01/11 04:36:10;;;;;;;37.03;26.83;;;3.70;99.90;;;;;;5004766;28;20544;-90
2022/01/11 04:38:39;;;;;;;36.33;26.53;;;3.70;99.90;;;;;;5007353;28;20474;-90
2022/01/11 04:41:06;;;;;;;40.23;28.53;;;3.80;99.90;;;;;;5001602;28;20470;-90
2022/01/11 04:43:33;;;;;;;41.00;27.80;;;3.70;99.90;;;;;;5007413;28;20478;-89
2022/01/11 04:46:03;;;;;;;39.30;27.40;;;3.80;99.90;;;;;;5001582;28;21000;-90
2022/01/11 04:48:32;;;;;;;40.50;27.60;;;3.80;99.90;;;;;;4994567;28;20957;-90
2022/01/11 04:51:00;;;;;;;42.90;28.77;;;3.80;99.90;;;;;;5000024;28;20469;-90
2022/01/11 04:53:26;;;;;;;46.73;28.03;;;3.90;99.90;;;;;;5013301;28;20490;-90
2022/01/11 04:55:58;;;;;;;43.40;28.80;;;3.90;99.90;;;;;;5013201;28;20955;-90
2022/01/11 04:58:25;;;;;;;40.40;27.40;;;3.90;99.90;;;;;;5012728;28;20512;-90
2022/01/11 05:00:52;;;;;;;36.43;27.17;;;3.90;99.90;;;;;;5036185;28;20457;-89
2022/01/11 05:03:19;;;;;;;40.77;27.93;;;4.00;99.90;;;;;;5035127;28;20476;-90
2022/01/11 05:05:46;;;;;;;41.07;28.00;;;3.90;99.90;;;;;;5026879;28;20524;-90
2022/01/11 05:08:13;;;;;;;39.10;28.63;;;3.90;99.90;;;;;;5013960;28;20458;-90
2022/01/11 05:10:42;;;;;;;38.60;26.00;;;3.90;99.90;;;;;;5031957;28;20477;-89
2022/01/11 05:13:11;;;;;;;36.47;26.30;;;3.90;99.90;;;;;;5028299;28;20449;-90
2022/01/11 05:15:38;;;;;;;37.20;25.13;;;4.00;99.90;;;;;;5010119;28;20442;-90
2022/01/11 05:18:05;;;;;;;35.93;27.00;;;3.90;99.90;;;;;;5037810;28;20487;-89
2022/01/11 05:20:32;;;;;;;42.57;27.83;;;3.90;99.90;;;;;;5054953;23;20455;-86
2022/01/11 05:22:59;;;;;;;37.27;26.73;;;3.90;99.90;;;;;;5027306;28;20441;-86
2022/01/11 05:25:26;;;;;;;36.70;27.10;;;3.90;99.90;;;;;;5019624;28;20442;-86
2022/01/11 05:27:53;;;;;;;33.80;25.90;;;4.00;99.90;;;;;;5022394;28;20452;-85
2022/01/11 05:30:21;;;;;;;43.60;27.20;;;4.00;99.90;;;;;;5021533;28;20441;-87
2022/01/11 05:32:49;;;;;;;35.10;26.50;;;4.00;99.90;;;;;;5008071;28;20442;-87
2022/01/11 05:35:18;;;;;;;40.33;27.77;;;4.00;99.90;;;;;;5015293;28;20437;-86
2022/01/11 05:37:46;;;;;;;33.87;26.00;;;4.10;99.90;;;;;;5008797;28;20466;-87
2022/01/11 05:40:14;;;;;;;41.23;26.67;;;4.10;99.90;;;;;;5026549;28;20446;-86
2022/01/11 05:42:43;;;;;;;33.93;25.93;;;4.10;99.90;;;;;;5013592;28;20445;-88
2022/01/11 05:45:11;;;;;;;33.27;28.40;;;4.10;99.90;;;;;;5002837;28;20490;-87
2022/01/11 05:47:40;;;;;;;34.80;26.30;;;4.10;99.90;;;;;;5020606;28;20443;-87
2022/01/11 05:50:09;;;;;;;50.10;28.30;;;4.10;99.90;;;;;;5016389;28;20474;-87
2022/01/11 05:52:38;;;;;;;35.77;27.77;;;4.10;99.90;;;;;;5035195;28;20438;-87
2022/01/11 05:55:07;;;;;;;38.63;27.43;;;4.10;99.90;;;;;;5025954;28;20513;-87
2022/01/11 05:57:34;;;;;;;38.73;26.70;;;4.10;99.90;;;;;;5013299;28;20461;-88
2022/01/11 06:00:01;;;;;;;41.27;27.60;;;4.10;99.90;;;;;;5008403;28;20455;-88
2022/01/11 06:02:28;;;;;;;39.60;26.60;;;4.10;99.90;;;;;;5009298;28;20441;-88
2022/01/11 06:04:56;;;;;;;36.87;27.60;;;4.00;99.90;;;;;;5011509;28;20477;-86
2022/01/11 06:07:23;;;;;;;48.57;28.70;;;3.90;99.90;;;;;;5011094;28;20461;-86
2022/01/11 06:09:50;;;;;;;33.07;26.70;;;3.90;99.90;;;;;;5010776;28;20447;-87
2022/01/11 06:12:17;;;;;;;39.57;28.10;;;3.90;99.90;;;;;;5012279;28;20494;-85
2022/01/11 06:14:44;;;;;;;38.30;26.90;;;3.90;99.90;;;;;;5012998;28;20830;-87
2022/01/11 06:17:10;;;;;;;35.50;26.30;;;3.90;99.90;;;;;;4999962;28;20567;-86
2022/01/11 06:19:37;;;;;;;43.47;28.37;;;3.90;99.90;;;;;;5014815;28;20948;-86
2022/01/11 06:22:05;;;;;;;34.17;26.70;;;3.90;99.90;;;;;;5013604;28;20476;-86
2022/01/11 06:24:32;;;;;;;36.53;27.20;;;3.70;99.90;;;;;;5009842;28;20493;-87
2022/01/11 06:26:59;;;;;;;35.50;26.47;;;3.70;99.90;;;;;;5008511;28;20453;-88
2022/01/11 06:29:25;;;;;;;42.00;29.27;;;3.70;99.90;;;;;;5006955;28;20977;-87
2022/01/11 06:31:52;;;;;;;40.10;29.30;;;3.80;99.90;;;;;;5007493;28;20459;-86
2022/01/11 06:34:19;;;;;;;38.80;28.47;;;3.80;99.90;;;;;;5014489;28;20457;-86
2022/01/11 06:36:46;;;;;;;35.60;27.80;;;3.90;99.90;;;;;;5010102;28;20832;-87
2022/01/11 06:39:14;;;;;;;37.93;28.97;;;3.90;99.90;;;;;;5014007;28;20458;-87
2022/01/11 06:41:42;;;;;;;43.00;27.47;;;3.90;99.90;;;;;;5009265;28;20453;-86
2022/01/11 06:44:10;;;;;;;39.23;28.33;;;3.90;99.90;;;;;;5016415;28;20539;-86
2022/01/11 06:46:37;;;;;;;40.23;29.60;;;3.90;99.90;;;;;;5025669;28;21131;-86
2022/01/11 06:49:04;;;;;;;38.67;28.13;;;3.90;99.90;;;;;;5012857;28;20464;-87
2022/01/11 06:51:31;;;;;;;43.47;29.30;;;3.90;99.90;;;;;;5018716;28;20478;-86
2022/01/11 06:53:58;;;;;;;35.53;27.77;;;3.90;99.90;;;;;;5009476;28;20453;-88
2022/01/11 06:56:26;;;;;;;36.67;26.67;;;3.90;99.90;;;;;;5010240;28;20457;-88
2022/01/11 06:58:53;;;;;;;36.53;28.00;;;4.00;99.90;;;;;;5006166;28;20457;-87
2022/01/11 07:01:20;;;;;;;36.47;26.87;;;3.90;99.90;;;;;;5003253;28;20490;-88
2022/01/11 07:03:46;;;;;;;37.37;24.93;;;4.00;99.90;;;;;;5032664;28;20510;-86
2022/01/11 07:06:13;;;;;;;35.23;27.47;;;4.00;99.90;;;;;;5018174;28;20495;-86
2022/01/11 07:08:40;;;;;;;35.23;26.70;;;4.00;99.90;;;;;;5025478;28;20430;-87
2022/01/11 07:11:07;;;;;;;35.10;27.27;;;4.00;99.90;;;;;;5020148;28;20466;-87
2022/01/11 07:13:35;;;;;;;43.97;28.67;;;4.00;99.90;;;;;;5011595;28;20447;-88
2022/01/11 07:16:02;;;;;;;43.97;30.23;;;4.00;99.90;;;;;;5005509;28;20967;-88
2022/01/11 07:18:29;;;;;;;34.43;26.03;;;4.00;99.90;;;;;;5004339;28;20848;-86
2022/01/11 07:20:56;;;;;;;39.50;26.97;;;4.00;99.90;;;;;;5010271;28;20474;-87
2022/01/11 07:23:23;;;;;;;37.43;27.33;;;4.00;99.90;;;;;;5011177;28;20518;-87
2022/01/11 07:25:49;;;;;;;35.90;27.83;;;4.00;99.90;;;;;;5007112;28;20482;-87
2022/01/11 07:28:16;;;;;;;40.10;27.70;;;4.00;99.90;;;;;;5007993;28;20462;-86
2022/01/11 07:30:44;;;;;;;39.57;26.30;;;4.00;99.90;;;;;;5006615;28;20470;-87
2022/01/11 07:33:11;;;;;;;42.27;26.67;;;4.10;99.90;;;;;;5010780;28;20550;-85
2022/01/11 07:35:38;;;;;;;45.77;28.20;;;4.10;99.90;;;;;;5020759;28;20500;-85
2022/01/11 07:38:05;;;;;;;40.53;28.80;;;4.10;99.90;;;;;;5021159;28;20455;-87
2022/01/11 07:40:32;;;;;;;36.57;28.13;;;4.10;99.90;;;;;;5013071;28;20474;-88
2022/01/11 07:42:59;;;;;;;41.97;27.17;;;4.10;99.90;;;;;;5008683;28;20473;-87
2022/01/11 07:45:26;;;;;;;35.80;25.73;;;4.10;99.90;;;;;;5031323;28;20465;-87
2022/01/11 07:47:54;;;;;;;35.53;26.80;;;4.20;99.90;;;;;;5036987;28;20430;-89
2022/01/11 07:50:21;;;;;;;35.37;27.20;;;4.20;99.90;;;;;;5026490;28;20467;-89
2022/01/11 07:52:48;;;;;;;34.87;25.53;;;4.30;99.90;;;;;;5018094;28;20448;-88
2022/01/11 07:55:15;;;;;;;34.77;26.50;;;4.30;99.90;;;;;;5027219;28;20446;-88
2022/01/11 07:57:42;;;;;;;37.20;27.50;;;4.40;99.90;;;;;;5022493;28;20449;-88
2022/01/11 08:00:10;;;;;;;34.43;26.37;;;4.40;99.90;;;;;;5007010;28;20976;-88
2022/01/11 08:02:36;;;;;;;36.87;26.80;;;4.40;99.90;;;;;;4998770;28;20444;-87
2022/01/11 08:05:06;;;;;;;35.53;26.00;;;4.50;99.90;;;;;;4998501;28;20994;-90
2022/01/11 08:07:33;;;;;;;32.30;26.57;;;4.50;99.90;;;;;;5004979;28;20450;-88
2022/01/11 08:10:00;;;;;;;34.53;25.10;;;4.60;99.90;;;;;;5008283;28;20451;-88
2022/01/11 08:12:27;;;;;;;34.30;24.70;;;4.60;99.90;;;;;;5002069;28;20538;-89
2022/01/11 08:14:54;;;;;;;36.17;25.57;;;4.60;99.90;;;;;;5010131;28;20461;-89
2022/01/11 08:17:21;;;;;;;35.07;25.53;;;4.60;99.90;;;;;;5031590;28;21047;-89
2022/01/11 08:19:48;;;;;;;34.70;26.20;;;4.60;99.90;;;;;;5022630;28;20526;-89
2022/01/11 08:22:16;;;;;;;45.13;35.93;;;4.70;99.90;;;;;;5023042;28;20824;-88
2022/01/11 08:24:44;;;;;;;37.50;29.43;;;4.70;99.90;;;;;;5017848;28;20500;-88
2022/01/11 08:27:12;;;;;;;36.53;27.20;;;4.70;99.90;;;;;;5007693;28;20570;-89
2022/01/11 08:29:39;;;;;;;35.57;26.50;;;4.70;99.90;;;;;;5007441;28;20462;-88
2022/01/11 08:32:07;;;;;;;37.43;24.80;;;4.80;99.90;;;;;;5017656;28;20562;-88
2022/01/11 08:34:34;;;;;;;40.10;25.93;;;4.90;99.90;;;;;;5004693;28;20451;-87
2022/01/11 08:37:01;;;;;;;33.43;26.00;;;4.80;99.90;;;;;;5004162;28;20456;-88
2022/01/11 08:39:29;;;;;;;35.43;25.87;;;4.80;99.90;;;;;;4999089;28;20499;-88
2022/01/11 08:41:56;;;;;;;37.43;24.20;;;4.90;99.90;;;;;;4997358;28;20470;-88
2022/01/11 08:44:24;;;;;;;34.90;27.37;;;4.90;99.90;;;;;;5001288;28;20485;-89
2022/01/11 08:46:51;;;;;;;33.10;25.17;;;5.00;99.90;;;;;;4997200;28;20502;-88
2022/01/11 08:49:18;;;;;;;42.67;28.40;;;5.00;99.90;;;;;;4998466;28;20446;-88
2022/01/11 08:51:45;;;;;;;31.67;24.50;;;5.10;99.90;;;;;;5014253;28;20473;-88
2022/01/11 08:54:12;;;;;;;36.47;26.30;;;5.20;99.90;;;;;;5009970;28;20800;-88
2022/01/11 08:56:41;;;;;;;32.10;25.30;;;5.20;99.90;;;;;;4998177;28;20478;-88
2022/01/11 08:59:08;;;;;;;40.27;26.37;;;5.20;99.90;;;;;;4997803;28;20450;-88
2022/01/11 09:01:35;;;;;;;32.87;26.63;;;5.30;99.90;;;;;;5009391;28;21006;-89
2022/01/11 09:04:03;;;;;;;35.63;26.50;;;5.40;99.90;;;;;;5003329;28;20529;-88
2022/01/11 09:06:30;;;;;;;37.87;25.30;;;5.50;99.90;;;;;;4997775;28;20485;-89
2022/01/11 09:08:57;;;;;;;29.03;24.33;;;5.50;99.90;;;;;;4999355;28;20469;-90
2022/01/11 09:11:24;;;;;;;32.87;25.00;;;5.60;99.90;;;;;;5014425;28;20850;-89
2022/01/11 09:13:52;;;;;;;34.00;24.20;;;5.60;99.90;;;;;;5014135;28;20454;-87
2022/01/11 09:16:21;;;;;;;36.70;25.93;;;5.70;99.90;;;;;;5007946;28;20480;-88
2022/01/11 09:18:49;;;;;;;32.90;25.30;;;5.70;99.90;;;;;;5017410;28;20462;-89
2022/01/11 09:21:16;;;;;;;32.20;26.07;;;5.70;99.90;;;;;;5015789;28;20483;-87
2022/01/11 09:23:42;;;;;;;34.50;26.07;;;5.70;99.90;;;;;;5020734;28;20443;-87
2022/01/11 09:26:09;;;;;;;31.80;27.80;;;5.70;99.90;;;;;;5010020;28;20827;-87
2022/01/11 09:28:36;;;;;;;29.97;26.53;;;5.70;99.90;;;;;;5010149;28;20461;-87
2022/01/11 09:31:04;;;;;;;29.07;23.73;;;5.70;99.90;;;;;;5005163;28;20471;-88
2022/01/11 09:33:31;;;;;;;33.07;26.07;;;5.70;99.90;;;;;;5007986;28;20446;-87
2022/01/11 09:35:58;;;;;;;30.70;24.70;;;5.70;99.90;;;;;;5024013;28;20517;-88
2022/01/11 09:38:25;;;;;;;36.97;26.90;;;5.70;99.90;;;;;;5014946;28;20444;-88
2022/01/11 09:40:53;;;;;;;29.33;25.60;;;5.80;99.90;;;;;;5027954;28;20493;-87
2022/01/11 09:43:22;;;;;;;30.03;24.83;;;5.80;99.90;;;;;;5016633;28;20453;-87
2022/01/11 09:45:49;;;;;;;32.03;25.80;;;5.80;99.90;;;;;;5028148;28;20497;-90
2022/01/11 09:48:26;;;;;;;30.77;25.00;;;5.80;99.90;;;;;;5012077;28;20461;-87
2022/01/11 09:50:53;;;;;;;29.40;23.87;;;5.80;99.90;;;;;;5022085;28;20459;-87
2022/01/11 09:53:20;;;;;;;30.80;24.20;;;5.80;99.90;;;;;;5018184;28;20450;-88
2022/01/11 09:55:48;;;;;;;35.03;24.00;;;5.80;99.90;;;;;;5018654;28;20457;-88
2022/01/11 09:58:15;;;;;;;27.67;23.17;;;5.80;99.90;;;;;;5016161;28;20540;-87
2022/01/11 10:00:42;;;;;;;34.77;23.80;;;5.90;99.90;;;;;;5003778;28;20481;-88
2022/01/11 10:03:10;;;;;;;30.43;23.60;;;6.00;99.90;;;;;;5013533;28;20541;-88
2022/01/11 10:05:39;;;;;;;29.50;23.20;;;6.10;99.90;;;;;;4997301;28;20554;-90
2022/01/11 10:08:22;;;;;;;28.77;21.83;;;6.10;99.90;;;;;;5014566;28;20462;-88
2022/01/11 10:10:49;;;;;;;28.47;22.13;;;6.20;99.90;;;;;;5008284;28;20472;-89
2022/01/11 10:13:31;;;;;;;31.30;22.67;;;6.30;99.90;;;;;;5001883;28;20445;-88
2022/01/11 10:15:58;;;;;;;33.77;23.77;;;6.30;99.90;;;;;;5006928;28;20444;-88
2022/01/11 10:18:35;;;;;;;30.23;24.00;;;6.40;99.90;;;;;;5015768;28;20457;-89
2022/01/11 10:21:28;;;;;;;28.37;23.77;;;6.50;99.90;;;;;;4996476;28;20525;-88
2022/01/11 10:23:54;;;;;;;32.73;24.17;;;6.60;99.90;;;;;;5010984;28;20443;-88
2022/01/11 10:26:42;;;;;;;27.70;23.10;;;6.70;99.90;;;;;;5012909;28;20526;-89
2022/01/11 10:29:29;;;;;;;33.80;23.30;;;7.00;99.90;;;;;;5011004;28;20446;-89
2022/01/11 10:31:57;;;;;;;32.20;24.87;;;7.00;99.90;;;;;;5020909;28;20924;-90
2022/01/11 10:34:31;;;;;;;30.00;22.83;;;7.10;99.90;;;;;;5021798;28;20576;-87
2022/01/11 10:37:02;;;;;;;30.03;24.10;;;7.20;99.90;;;;;;5006366;28;20941;-88
2022/01/11 10:39:32;;;;;;;28.47;23.10;;;7.20;99.90;;;;;;5018507;28;20454;-88
2022/01/11 10:41:59;;;;;;;29.90;24.27;;;7.30;99.90;;;;;;5013943;28;21078;-87
2022/01/11 10:44:48;;;;;;;28.97;23.30;;;7.30;99.90;;;;;;5011280;28;20457;-87
2022/01/11 10:47:19;;;;;;;32.20;23.73;;;7.50;99.90;;;;;;5006531;28;20510;-88
2022/01/11 10:49:46;;;;;;;24.80;20.13;;;7.60;99.90;;;;;;5003593;28;20466;-89
2022/01/11 10:52:20;;;;;;;24.40;20.20;;;7.80;99.90;;;;;;5007198;28;20463;-89
2022/01/11 10:54:48;;;;;;;23.40;20.03;;;7.90;99.90;;;;;;5006389;28;20449;-88
2022/01/11 10:57:17;;;;;;;26.20;20.90;;;7.90;99.90;;;;;;5018887;28;20446;-89
2022/01/11 10:59:44;;;;;;;28.30;20.13;;;8.00;99.90;;;;;;5019035;28;20446;-90
2022/01/11 11:02:14;;;;;;;25.90;21.90;;;8.10;99.90;;;;;;5020219;28;20466;-89
2022/01/11 11:04:41;;;;;;;26.47;22.17;;;8.40;99.90;;;;;;5031256;28;20446;-88
2022/01/11 11:07:13;;;;;;;29.43;22.83;;;8.40;99.90;;;;;;5027607;28;20477;-87
2022/01/11 11:09:48;;;;;;;25.63;22.40;;;8.40;99.90;;;;;;5009662;28;20457;-88
2022/01/11 11:12:20;;;;;;;27.03;20.63;;;8.60;99.90;;;;;;5001940;28;20475;-88
2022/01/11 11:14:52;;;;;;;28.17;19.53;;;8.80;99.90;;;;;;5019679;28;20453;-90
2022/01/11 11:17:27;;;;;;;30.20;20.23;;;8.80;99.90;;;;;;5019447;28;20446;-89
2022/01/11 11:20:00;;;;;;;25.73;20.30;;;8.80;99.90;;;;;;5015912;28;20470;-88
2022/01/11 11:22:27;;;;;;;23.33;19.70;;;8.80;99.90;;;;;;5045527;23;20498;-87
2022/01/11 11:24:56;;;;;;;20.70;17.73;;;8.40;99.90;;;;;;5020685;28;20453;-87
2022/01/11 11:27:24;;;;;;;22.90;17.70;;;8.30;99.90;;;;;;5021543;28;20866;-87
2022/01/11 11:29:51;;;;;;;21.30;16.87;;;8.30;99.90;;;;;;5023392;28;20450;-88
2022/01/11 11:32:20;;;;;;;26.30;18.07;;;8.30;99.90;;;;;;5022463;28;20466;-88
2022/01/11 11:34:49;;;;;;;18.77;16.77;;;8.40;99.90;;;;;;5013892;28;20462;-88
2022/01/11 11:37:19;;;;;;;21.87;19.67;;;8.40;99.90;;;;;;5012010;28;20452;-87
2022/01/11 11:39:47;;;;;;;20.30;16.70;;;8.40;99.90;;;;;;5018847;28;20445;-87
2022/01/11 11:42:19;;;;;;;20.67;16.90;;;8.40;99.90;;;;;;5018827;28;20489;-87
2022/01/11 11:44:48;;;;;;;22.70;17.00;;;8.60;99.90;;;;;;5015780;28;20550;-87
2022/01/11 11:47:15;;;;;;;18.00;14.13;;;8.50;99.90;;;;;;5008841;28;20510;-85
2022/01/11 11:49:44;;;;;;;17.97;15.90;;;8.60;99.90;;;;;;5004279;28;20452;-87
2022/01/11 11:52:20;;;;;;;18.93;16.93;;;8.70;99.90;;;;;;5007806;28;20470;-87
2022/01/11 11:54:49;;;;;;;21.13;15.97;;;9.50;99.90;;;;;;5021050;28;20442;-87
2022/01/11 11:57:18;;;;;;;15.97;14.27;;;11.70;98.40;;;;;;5025932;28;20447;-87
2022/01/11 11:59:52;;;;;;;14.90;13.33;;;14.60;94.20;;;;;;5018453;28;20447;-88
2022/01/11 12:02:33;;;;;;;16.90;13.63;;;15.50;86.20;;;;;;5016319;28;20478;-85
2022/01/11 12:05:01;;;;;;;13.20;11.90;;;14.40;81.20;;;;;;5010455;28;20457;-87
2022/01/11 12:07:32;;;;;;;15.10;13.50;;;13.20;82.40;;;;;;5019832;28;20510;-88
2022/01/11 12:09:58;;;;;;;16.87;14.40;;;12.00;84.30;;;;;;5004771;28;20454;-85
2022/01/11 12:12:49;;;;;;;13.53;10.90;;;11.30;88.80;;;;;;5014854;28;20475;-87
2022/01/11 12:15:38;;;;;;;11.67;9.33;;;10.30;90.10;;;;;;5013583;28;20847;-86
2022/01/11 12:18:16;;;;;;;9.37;7.90;;;9.60;90.30;;;;;;5011229;28;20446;-86
2022/01/11 12:20:48;;;;;;;10.77;7.53;;;9.10;90.20;;;;;;5009475;28;20473;-87
2022/01/11 12:23:21;;;;;;;7.83;5.83;;;8.80;90.80;;;;;;5007902;28;20456;-87
2022/01/11 12:25:55;;;;;;;9.27;7.67;;;8.70;90.80;;;;;;5011879;28;20528;-87
2022/01/11 12:28:26;;;;;;;10.50;9.40;;;8.10;91.50;;;;;;5036390;28;20446;-87
2022/01/11 12:31:26;;;;;;;5.57;5.00;;;8.10;92.00;;;;;;5004869;28;20454;-88
2022/01/11 12:33:52;;;;;;;5.90;4.40;;;8.10;91.10;;;;;;5011138;28;20490;-87
2022/01/11 12:36:19;;;;;;;4.50;4.10;;;8.10;91.20;;;;;;5009372;28;20447;-88
2022/01/11 12:39:00;;;;;;;5.83;4.60;;;8.00;91.00;;;;;;5013521;28;20457;-87
2022/01/11 12:41:29;;;;;;;5.23;4.43;;;8.00;90.90;;;;;;5005989;28;20466;-87
2022/01/11 12:44:20;;;;;;;7.40;5.80;;;7.80;91.10;;;;;;5009347;28;20454;-88
2022/01/11 12:46:53;;;;;;;8.57;6.00;;;7.50;92.00;;;;;;5016961;28;20489;-88